Time;durP1;ratioP1;P1;durP2;ratioP2;P2;SDS_P1;SDS_P2;PMS_P1;PMS_P2;Temp;Humidity;BMP_temperature;BMP_pressure;BME280_temperature;BME280_humidity;BME280_pressure;Samples;Min_cycle;Max_cycle;Signal;HPM_P1;HPM_P2
2023/07/15 00:01:12;;;;;;;3.58;2.50;;;;;;;;;;5017245;28;20048;-73
2023/07/15 00:03:37;;;;;;;2.72;2.10;;;;;;;;;;5017284;28;20037;-73
2023/07/15 00:06:05;;;;;;;3.72;2.25;;;;;;;;;;4992518;28;20033;-74
2023/07/15 00:08:31;;;;;;;3.95;2.13;;;;;;;;;;4984664;28;20044;-73
2023/07/15 00:10:56;;;;;;;4.00;2.10;;;;;;;;;;4998702;28;20033;-74
2023/07/15 00:13:22;;;;;;;3.08;2.10;;;;;;;;;;5004958;28;20551;-73
2023/07/15 00:15:50;;;;;;;1.45;1.30;;;;;;;;;;5011325;28;20054;-74
2023/07/15 00:18:17;;;;;;;2.78;2.05;;;;;;;;;;4995926;28;20209;-74
2023/07/15 00:20:44;;;;;;;2.15;1.60;;;;;;;;;;5007089;28;20123;-73
2023/07/15 00:23:21;;;;;;;1.83;1.70;;;;;;;;;;5008323;28;20173;-73
2023/07/15 00:25:47;;;;;;;3.10;1.92;;;;;;;;;;5006076;28;20041;-73
2023/07/15 00:28:13;;;;;;;4.22;2.05;;;;;;;;;;5012979;28;20025;-73
2023/07/15 00:30:38;;;;;;;2.08;1.75;;;;;;;;;;5004154;28;20371;-73
2023/07/15 00:33:08;;;;;;;3.08;2.22;;;;;;;;;;4999354;28;20378;-73
2023/07/15 00:35:34;;;;;;;1.63;1.47;;;;;;;;;;4993700;28;20525;-73
2023/07/15 00:37:59;;;;;;;4.05;2.10;;;;;;;;;;5004312;28;20040;-73
2023/07/15 00:40:26;;;;;;;4.45;2.22;;;;;;;;;;4986472;28;20419;-73
2023/07/15 00:43:30;;;;;;;3.63;2.25;;;;;;;;;;5005054;28;20432;-73
2023/07/15 00:46:17;;;;;;;3.15;1.98;;;;;;;;;;4980191;28;20050;-73
2023/07/15 00:48:50;;;;;;;2.08;1.52;;;;;;;;;;5006372;28;20034;-73
2023/07/15 00:51:16;;;;;;;6.78;2.30;;;;;;;;;;4995352;28;20042;-73
2023/07/15 00:53:42;;;;;;;2.53;1.98;;;;;;;;;;4995266;28;20040;-73
2023/07/15 00:56:08;;;;;;;6.43;2.42;;;;;;;;;;4988721;28;20091;-72
2023/07/15 00:58:34;;;;;;;2.08;1.75;;;;;;;;;;5012690;28;20035;-73
2023/07/15 01:01:00;;;;;;;2.25;2.00;;;;;;;;;;4996153;28;20053;-72
2023/07/15 01:03:25;;;;;;;3.50;1.70;;;;;;;;;;5005189;28;20025;-72
2023/07/15 01:05:51;;;;;;;3.35;2.20;;;;;;;;;;5015736;28;20124;-72
2023/07/15 01:08:17;;;;;;;2.92;1.85;;;;;;;;;;5018869;28;20614;-73
2023/07/15 01:10:43;;;;;;;2.72;1.85;;;;;;;;;;5006745;28;20045;-73
2023/07/15 01:13:09;;;;;;;4.10;2.17;;;;;;;;;;5000592;28;20449;-73
2023/07/15 01:15:34;;;;;;;3.35;1.90;;;;;;;;;;5016423;28;20053;-73
2023/07/15 01:18:00;;;;;;;2.70;1.92;;;;;;;;;;5003677;28;20025;-73
2023/07/15 01:20:25;;;;;;;2.25;2.00;;;;;;;;;;4993762;28;20027;-73
2023/07/15 01:22:51;;;;;;;3.92;2.30;;;;;;;;;;4995310;28;20499;-73
2023/07/15 01:25:17;;;;;;;2.50;2.20;;;;;;;;;;4980046;28;20114;-74
2023/07/15 01:27:42;;;;;;;2.72;2.08;;;;;;;;;;5008831;28;20380;-73
2023/07/15 01:30:09;;;;;;;2.45;2.13;;;;;;;;;;4999414;28;20100;-73
2023/07/15 01:32:34;;;;;;;3.45;2.10;;;;;;;;;;5009615;28;20155;-74
2023/07/15 01:35:00;;;;;;;2.25;2.05;;;;;;;;;;5016580;28;20529;-73
2023/07/15 01:37:25;;;;;;;1.73;1.58;;;;;;;;;;5005665;28;20390;-74
2023/07/15 01:39:51;;;;;;;2.10;1.80;;;;;;;;;;5015967;28;20038;-72
2023/07/15 01:42:17;;;;;;;3.78;1.90;;;;;;;;;;5017065;28;20033;-74
2023/07/15 01:44:42;;;;;;;2.45;2.08;;;;;;;;;;5015918;28;20037;-74
2023/07/15 01:47:07;;;;;;;2.30;2.00;;;;;;;;;;5006023;28;20698;-74
2023/07/15 01:49:33;;;;;;;2.33;1.80;;;;;;;;;;4996036;28;20038;-73
2023/07/15 01:51:58;;;;;;;1.80;1.70;;;;;;;;;;4989099;28;20044;-74
2023/07/15 01:54:24;;;;;;;3.17;1.77;;;;;;;;;;5014970;28;20038;-73
2023/07/15 01:56:49;;;;;;;2.75;2.00;;;;;;;;;;5012175;28;20080;-73
2023/07/15 01:59:15;;;;;;;2.88;1.80;;;;;;;;;;5004924;28;20060;-73
2023/07/15 02:01:41;;;;;;;3.72;1.98;;;;;;;;;;4989258;28;20296;-73
2023/07/15 02:04:06;;;;;;;3.20;1.73;;;;;;;;;;4989061;28;20515;-73
2023/07/15 02:06:32;;;;;;;3.22;1.90;;;;;;;;;;4999323;28;20041;-73
2023/07/15 02:08:57;;;;;;;2.03;1.60;;;;;;;;;;5002183;28;20554;-74
2023/07/15 02:11:22;;;;;;;2.25;2.05;;;;;;;;;;4996072;28;20088;-73
2023/07/15 02:13:50;;;;;;;2.80;1.98;;;;;;;;;;4986949;28;20030;-73
2023/07/15 02:16:15;;;;;;;1.80;1.48;;;;;;;;;;5002422;28;20103;-73
2023/07/15 02:18:41;;;;;;;3.13;2.40;;;;;;;;;;4998570;28;20053;-73
2023/07/15 02:21:06;;;;;;;2.47;2.13;;;;;;;;;;5004450;28;20041;-73
2023/07/15 02:23:32;;;;;;;3.05;1.80;;;;;;;;;;5015337;28;20033;-73
2023/07/15 02:25:58;;;;;;;2.90;1.92;;;;;;;;;;5008830;28;20034;-73
2023/07/15 02:28:26;;;;;;;4.80;2.30;;;;;;;;;;4989123;28;20508;-73
2023/07/15 02:30:52;;;;;;;2.55;1.70;;;;;;;;;;5015352;28;20050;-73
2023/07/15 02:33:17;;;;;;;5.13;2.20;;;;;;;;;;5013551;28;20544;-74
2023/07/15 02:35:43;;;;;;;2.45;1.80;;;;;;;;;;5008090;28;21204;-74
2023/07/15 02:38:09;;;;;;;2.10;1.90;;;;;;;;;;5009268;28;20038;-74
2023/07/15 02:40:34;;;;;;;2.53;2.25;;;;;;;;;;4994365;28;20052;-74
2023/07/15 02:43:00;;;;;;;2.72;2.13;;;;;;;;;;5005222;28;20037;-73
2023/07/15 02:45:26;;;;;;;2.47;2.25;;;;;;;;;;4980093;28;20155;-74
2023/07/15 02:47:52;;;;;;;2.78;1.85;;;;;;;;;;4994794;28;20731;-74
2023/07/15 02:50:18;;;;;;;1.50;1.38;;;;;;;;;;5003048;28;20109;-73
2023/07/15 02:52:45;;;;;;;2.33;1.85;;;;;;;;;;5001931;28;20137;-73
2023/07/15 02:55:11;;;;;;;2.97;1.75;;;;;;;;;;5010424;28;20064;-73
2023/07/15 02:57:36;;;;;;;1.88;1.30;;;;;;;;;;5006353;28;20500;-73
2023/07/15 03:00:09;;;;;;;2.55;1.80;;;;;;;;;;5006005;28;20092;-75
2023/07/15 03:02:35;;;;;;;4.20;2.50;;;;;;;;;;5002035;28;20045;-75
2023/07/15 03:05:02;;;;;;;1.85;1.65;;;;;;;;;;5014726;28;20068;-75
2023/07/15 03:07:28;;;;;;;2.08;1.77;;;;;;;;;;5013925;28;20514;-75
2023/07/15 03:09:53;;;;;;;3.38;2.30;;;;;;;;;;5014530;28;20109;-74
2023/07/15 03:12:18;;;;;;;1.98;1.77;;;;;;;;;;5011838;28;20492;-74
2023/07/15 03:14:44;;;;;;;4.28;2.13;;;;;;;;;;4987150;28;20113;-75
2023/07/15 03:17:10;;;;;;;2.90;1.90;;;;;;;;;;5000669;28;20515;-75
2023/07/15 03:19:37;;;;;;;3.55;2.30;;;;;;;;;;5004316;28;20544;-75
2023/07/15 03:22:03;;;;;;;2.35;1.50;;;;;;;;;;5012848;28;20041;-75
2023/07/15 03:24:29;;;;;;;2.15;1.95;;;;;;;;;;5005447;28;20038;-75
2023/07/15 03:26:54;;;;;;;2.80;2.00;;;;;;;;;;4993955;28;20038;-75
2023/07/15 03:29:22;;;;;;;2.08;1.88;;;;;;;;;;4999356;28;20069;-74
2023/07/15 03:31:48;;;;;;;3.92;2.38;;;;;;;;;;5013253;28;20045;-74
2023/07/15 03:34:13;;;;;;;4.07;1.92;;;;;;;;;;5015650;28;20042;-74
2023/07/15 03:36:39;;;;;;;2.35;1.85;;;;;;;;;;5001326;28;20041;-75
2023/07/15 03:39:05;;;;;;;3.83;2.47;;;;;;;;;;5015205;28;20927;-74
2023/07/15 03:41:30;;;;;;;2.20;2.00;;;;;;;;;;5016591;28;20124;-74
2023/07/15 03:43:56;;;;;;;2.35;1.88;;;;;;;;;;4987775;28;20121;-74
2023/07/15 03:46:23;;;;;;;2.80;2.33;;;;;;;;;;4996738;28;20525;-74
2023/07/15 03:48:48;;;;;;;2.65;2.05;;;;;;;;;;4991347;28;20437;-75
2023/07/15 03:51:14;;;;;;;2.65;2.10;;;;;;;;;;4990689;28;20518;-74
2023/07/15 03:53:39;;;;;;;3.92;2.25;;;;;;;;;;5003093;28;20045;-75
2023/07/15 03:56:05;;;;;;;2.63;2.00;;;;;;;;;;5013661;28;20114;-74
2023/07/15 03:58:30;;;;;;;2.50;2.17;;;;;;;;;;5007032;28;20041;-75
2023/07/15 04:00:55;;;;;;;3.50;2.22;;;;;;;;;;5017252;28;20120;-74
2023/07/15 04:03:21;;;;;;;2.22;1.73;;;;;;;;;;5017492;28;20037;-74
2023/07/15 04:05:46;;;;;;;2.65;2.00;;;;;;;;;;5016712;28;20037;-75
2023/07/15 04:08:12;;;;;;;3.05;1.88;;;;;;;;;;5017192;28;20048;-75
2023/07/15 04:10:37;;;;;;;3.00;2.10;;;;;;;;;;5016426;28;20426;-74
2023/07/15 04:13:03;;;;;;;3.22;2.00;;;;;;;;;;4979258;28;20057;-74
2023/07/15 04:15:30;;;;;;;2.20;1.92;;;;;;;;;;5008778;28;20072;-75
2023/07/15 04:17:55;;;;;;;2.10;1.90;;;;;;;;;;5000519;28;20505;-75
2023/07/15 04:20:21;;;;;;;3.85;2.72;;;;;;;;;;5016863;28;20045;-74
2023/07/15 04:22:46;;;;;;;2.30;2.10;;;;;;;;;;5011793;28;20579;-75
2023/07/15 04:25:12;;;;;;;4.10;2.75;;;;;;;;;;4990303;28;20033;-75
2023/07/15 04:27:38;;;;;;;3.42;2.45;;;;;;;;;;5016371;28;20041;-74
2023/07/15 04:30:05;;;;;;;4.57;2.45;;;;;;;;;;5012800;28;20049;-75
2023/07/15 04:32:31;;;;;;;2.38;1.90;;;;;;;;;;4999357;28;20049;-75
2023/07/15 04:34:56;;;;;;;2.47;2.10;;;;;;;;;;5008505;28;20048;-74
2023/07/15 04:37:22;;;;;;;3.90;2.42;;;;;;;;;;4986990;28;20041;-74
2023/07/15 04:39:48;;;;;;;2.83;2.03;;;;;;;;;;4978890;28;20042;-73
2023/07/15 04:42:13;;;;;;;3.67;2.40;;;;;;;;;;4992980;28;20042;-74
2023/07/15 04:44:38;;;;;;;2.25;2.00;;;;;;;;;;5001551;28;20035;-74
2023/07/15 04:47:04;;;;;;;3.97;2.80;;;;;;;;;;5010032;28;20065;-75
2023/07/15 04:49:29;;;;;;;3.63;2.22;;;;;;;;;;5015904;28;20037;-75
2023/07/15 04:51:55;;;;;;;2.00;1.80;;;;;;;;;;5000261;28;20128;-74
2023/07/15 04:54:20;;;;;;;4.35;2.28;;;;;;;;;;4990479;28;20033;-75
2023/07/15 04:56:46;;;;;;;2.45;2.22;;;;;;;;;;5016636;28;20056;-75
2023/07/15 04:59:11;;;;;;;4.25;2.95;;;;;;;;;;5015747;28;20486;-75
2023/07/15 05:01:37;;;;;;;4.30;3.10;;;;;;;;;;5010499;28;20417;-74
2023/07/15 05:04:03;;;;;;;4.57;2.90;;;;;;;;;;5014697;28;20045;-75
2023/07/15 05:06:28;;;;;;;3.92;2.72;;;;;;;;;;5015958;28;20053;-74
2023/07/15 05:08:55;;;;;;;6.30;3.38;;;;;;;;;;5004210;28;20057;-74
2023/07/15 05:11:20;;;;;;;4.95;3.08;;;;;;;;;;5006677;28;20117;-74
2023/07/15 05:13:46;;;;;;;3.83;3.28;;;;;;;;;;5015169;28;20485;-74
2023/07/15 05:16:14;;;;;;;5.93;2.95;;;;;;;;;;5015426;28;20055;-74
2023/07/15 05:18:39;;;;;;;4.68;3.28;;;;;;;;;;5008970;28;20033;-75
2023/07/15 05:21:04;;;;;;;5.20;3.00;;;;;;;;;;5000070;28;20056;-74
2023/07/15 05:23:31;;;;;;;4.88;3.15;;;;;;;;;;5002303;28;20058;-74
2023/07/15 05:26:01;;;;;;;3.50;3.08;;;;;;;;;;5017447;28;20427;-75
2023/07/15 05:28:30;;;;;;;5.47;3.07;;;;;;;;;;5000675;28;20042;-75
2023/07/15 05:31:00;;;;;;;8.35;2.83;;;;;;;;;;4988140;28;20088;-75
2023/07/15 05:33:26;;;;;;;5.72;3.10;;;;;;;;;;4987182;28;20052;-75
2023/07/15 05:35:52;;;;;;;3.33;2.75;;;;;;;;;;4992620;28;20626;-75
2023/07/15 05:38:22;;;;;;;4.43;2.88;;;;;;;;;;5001985;28;20066;-75
2023/07/15 05:40:47;;;;;;;4.30;2.65;;;;;;;;;;4996124;28;20537;-75
2023/07/15 05:43:12;;;;;;;2.08;1.60;;;;;;;;;;5007151;28;20065;-75
2023/07/15 05:45:38;;;;;;;5.65;3.22;;;;;;;;;;4999639;28;20113;-75
2023/07/15 05:48:04;;;;;;;4.60;2.97;;;;;;;;;;4994862;28;20076;-75
2023/07/15 05:50:34;;;;;;;4.03;2.60;;;;;;;;;;5004626;28;20053;-76
2023/07/15 05:52:59;;;;;;;5.13;3.13;;;;;;;;;;4985052;28;20080;-76
2023/07/15 05:55:25;;;;;;;5.25;3.03;;;;;;;;;;5008925;28;20029;-76
2023/07/15 05:57:50;;;;;;;5.22;3.40;;;;;;;;;;4995133;28;20024;-76
2023/07/15 06:00:15;;;;;;;5.60;3.25;;;;;;;;;;4995741;28;20095;-76
2023/07/15 06:02:41;;;;;;;5.20;3.53;;;;;;;;;;4997320;28;20041;-76
2023/07/15 06:05:07;;;;;;;5.85;3.15;;;;;;;;;;5002561;28;20035;-76
2023/07/15 06:07:32;;;;;;;2.95;2.70;;;;;;;;;;4995743;28;20026;-76
2023/07/15 06:09:57;;;;;;;4.85;3.10;;;;;;;;;;4989893;28;20603;-76
2023/07/15 06:12:23;;;;;;;5.00;3.42;;;;;;;;;;5004439;28;20574;-76
2023/07/15 06:14:49;;;;;;;4.50;3.22;;;;;;;;;;5001155;28;20019;-76
2023/07/15 06:17:15;;;;;;;4.63;3.17;;;;;;;;;;4996355;28;20427;-76
2023/07/15 06:19:40;;;;;;;4.93;3.20;;;;;;;;;;4991141;28;20113;-76
2023/07/15 06:22:05;;;;;;;5.85;3.47;;;;;;;;;;4996337;28;20022;-76
2023/07/15 06:24:31;;;;;;;6.55;3.42;;;;;;;;;;4994959;28;20539;-77
2023/07/15 06:26:57;;;;;;;3.28;2.10;;;;;;;;;;5003149;28;20150;-77
2023/07/15 06:29:24;;;;;;;5.00;3.00;;;;;;;;;;4994547;28;20037;-78
2023/07/15 06:31:50;;;;;;;3.28;2.80;;;;;;;;;;4996921;28;20482;-78
2023/07/15 06:34:15;;;;;;;3.40;3.00;;;;;;;;;;4999629;28;20121;-77
2023/07/15 06:36:41;;;;;;;6.45;3.30;;;;;;;;;;5000223;28;20128;-77
2023/07/15 06:39:06;;;;;;;3.75;3.00;;;;;;;;;;5003694;28;20613;-77
2023/07/15 06:41:32;;;;;;;3.25;2.72;;;;;;;;;;4997579;28;20030;-76
2023/07/15 06:43:57;;;;;;;4.35;2.90;;;;;;;;;;4998840;28;20042;-77
2023/07/15 06:46:25;;;;;;;3.60;3.00;;;;;;;;;;5000768;28;20033;-77
2023/07/15 06:48:51;;;;;;;6.07;2.60;;;;;;;;;;5006191;28;20041;-77
2023/07/15 06:51:18;;;;;;;5.65;3.08;;;;;;;;;;5000919;28;20030;-77
2023/07/15 06:53:43;;;;;;;3.30;2.90;;;;;;;;;;4999223;28;20112;-77
2023/07/15 06:56:09;;;;;;;2.53;2.33;;;;;;;;;;4997602;28;20681;-78
2023/07/15 06:58:34;;;;;;;2.28;2.08;;;;;;;;;;4996714;28;20471;-77
2023/07/15 07:00:59;;;;;;;5.88;3.22;;;;;;;;;;4987669;28;20037;-77
2023/07/15 07:03:27;;;;;;;3.95;3.30;;;;;;;;;;4999360;28;20062;-78
2023/07/15 07:05:52;;;;;;;3.50;3.10;;;;;;;;;;4999388;28;20030;-77
2023/07/15 07:08:21;;;;;;;2.60;2.40;;;;;;;;;;5000043;28;20445;-77
2023/07/15 07:10:46;;;;;;;3.45;3.05;;;;;;;;;;5001152;28;20875;-78
2023/07/15 07:13:12;;;;;;;3.58;3.28;;;;;;;;;;4996605;28;20490;-77
2023/07/15 07:15:39;;;;;;;3.88;3.10;;;;;;;;;;4997289;28;20050;-78
2023/07/15 07:18:04;;;;;;;5.60;2.75;;;;;;;;;;5004825;28;20072;-77
2023/07/15 07:20:29;;;;;;;5.00;3.20;;;;;;;;;;4999376;28;20049;-78
2023/07/15 07:22:55;;;;;;;3.90;2.90;;;;;;;;;;5001498;28;20018;-77
2023/07/15 07:25:20;;;;;;;3.95;3.00;;;;;;;;;;5000442;28;20025;-78
2023/07/15 07:27:45;;;;;;;4.75;2.92;;;;;;;;;;4999872;28;20026;-78
2023/07/15 07:30:11;;;;;;;4.88;3.10;;;;;;;;;;4991606;28;20049;-78
2023/07/15 07:32:36;;;;;;;3.35;3.03;;;;;;;;;;4998605;28;20034;-78
2023/07/15 07:35:02;;;;;;;3.42;2.90;;;;;;;;;;5004899;28;20022;-78
2023/07/15 07:37:27;;;;;;;2.70;2.50;;;;;;;;;;4999113;28;20018;-78
2023/07/15 07:39:53;;;;;;;4.13;3.05;;;;;;;;;;5000075;28;20028;-78
2023/07/15 07:42:19;;;;;;;3.30;2.78;;;;;;;;;;5000904;28;20026;-78
2023/07/15 07:44:45;;;;;;;4.18;3.10;;;;;;;;;;4989966;28;20429;-78
2023/07/15 07:47:10;;;;;;;5.70;3.13;;;;;;;;;;4995228;28;20088;-78
2023/07/15 07:49:35;;;;;;;3.35;3.05;;;;;;;;;;4999893;28;20022;-78
2023/07/15 07:52:03;;;;;;;4.90;3.08;;;;;;;;;;4998839;28;20370;-78
2023/07/15 07:54:28;;;;;;;4.47;3.10;;;;;;;;;;4999832;28;20031;-78
2023/07/15 07:56:53;;;;;;;3.50;3.00;;;;;;;;;;5001417;28;20026;-78
2023/07/15 07:59:19;;;;;;;5.47;2.95;;;;;;;;;;4997695;28;20052;-78
2023/07/15 08:01:44;;;;;;;3.00;2.70;;;;;;;;;;4994449;28;20036;-78
2023/07/15 08:04:10;;;;;;;3.75;2.40;;;;;;;;;;4999736;28;20022;-78
2023/07/15 08:06:36;;;;;;;2.92;2.60;;;;;;;;;;4995294;28;20370;-78
2023/07/15 08:09:01;;;;;;;4.05;2.80;;;;;;;;;;4997802;28;20063;-78
2023/07/15 08:11:26;;;;;;;3.25;2.95;;;;;;;;;;4998971;28;20018;-78
2023/07/15 08:13:53;;;;;;;2.70;2.40;;;;;;;;;;4996676;28;20486;-78
2023/07/15 08:16:32;;;;;;;3.70;2.70;;;;;;;;;;4998230;28;20083;-78
2023/07/15 08:18:57;;;;;;;3.30;2.95;;;;;;;;;;4995384;28;20026;-78
2023/07/15 08:21:23;;;;;;;5.20;2.53;;;;;;;;;;4999593;28;20093;-78
2023/07/15 08:23:48;;;;;;;2.50;2.30;;;;;;;;;;5003112;28;20038;-78
2023/07/15 08:26:14;;;;;;;3.80;2.10;;;;;;;;;;5002179;28;20497;-78
2023/07/15 08:28:39;;;;;;;2.00;1.77;;;;;;;;;;4998368;28;20041;-77
2023/07/15 08:31:04;;;;;;;1.90;1.80;;;;;;;;;;4996396;28;20037;-78
2023/07/15 08:33:30;;;;;;;1.90;1.60;;;;;;;;;;5000769;28;20033;-78
2023/07/15 08:35:56;;;;;;;2.03;1.90;;;;;;;;;;5003175;28;20482;-77
2023/07/15 08:38:21;;;;;;;2.10;1.92;;;;;;;;;;5000384;28;20033;-78
2023/07/15 08:40:48;;;;;;;2.25;1.70;;;;;;;;;;5000640;28;20625;-78
2023/07/15 08:43:14;;;;;;;1.70;1.60;;;;;;;;;;5002521;28;20022;-79
2023/07/15 08:45:40;;;;;;;1.90;1.80;;;;;;;;;;5003725;28;20081;-78
2023/07/15 08:48:06;;;;;;;1.83;1.60;;;;;;;;;;5000418;28;20066;-78
2023/07/15 08:50:33;;;;;;;2.90;1.80;;;;;;;;;;5006762;28;20021;-78
2023/07/15 08:53:00;;;;;;;2.22;1.90;;;;;;;;;;5000692;28;20061;-78
2023/07/15 08:55:28;;;;;;;2.13;1.90;;;;;;;;;;5000567;28;20549;-78
2023/07/15 08:57:54;;;;;;;2.00;1.90;;;;;;;;;;5003957;28;20359;-79
2023/07/15 09:00:20;;;;;;;2.85;1.73;;;;;;;;;;5005652;28;20030;-78
2023/07/15 09:02:45;;;;;;;2.03;1.75;;;;;;;;;;5005271;28;20405;-79
2023/07/15 09:05:11;;;;;;;2.70;1.98;;;;;;;;;;5005544;28;20495;-79
2023/07/15 09:07:49;;;;;;;2.20;2.00;;;;;;;;;;5005999;28;20029;-78
2023/07/15 09:10:15;;;;;;;1.73;1.63;;;;;;;;;;4997340;28;20052;-78
2023/07/15 09:12:51;;;;;;;2.60;1.92;;;;;;;;;;5006280;28;20022;-78
2023/07/15 09:15:16;;;;;;;3.78;2.05;;;;;;;;;;5001373;28;20050;-78
2023/07/15 09:17:51;;;;;;;3.63;1.92;;;;;;;;;;5004004;28;20034;-78
2023/07/15 09:20:18;;;;;;;3.08;1.80;;;;;;;;;;5004737;28;20182;-78
2023/07/15 09:22:45;;;;;;;2.70;1.92;;;;;;;;;;5010862;28;20018;-78
2023/07/15 09:25:11;;;;;;;2.00;1.85;;;;;;;;;;4998439;28;20029;-80
2023/07/15 09:27:42;;;;;;;2.47;1.83;;;;;;;;;;5008991;28;20034;-75
2023/07/15 09:30:09;;;;;;;1.90;1.52;;;;;;;;;;5001322;28;20032;-78
2023/07/15 09:32:35;;;;;;;2.08;1.63;;;;;;;;;;5004030;28;20022;-77
2023/07/15 09:35:01;;;;;;;2.30;1.80;;;;;;;;;;5003206;28;20034;-77
2023/07/15 09:37:28;;;;;;;2.35;2.15;;;;;;;;;;4998211;28;20118;-78
2023/07/15 09:39:59;;;;;;;1.85;1.70;;;;;;;;;;4996838;28;20171;-78
2023/07/15 09:42:27;;;;;;;3.90;2.42;;;;;;;;;;4995114;28;20076;-77
2023/07/15 09:44:52;;;;;;;2.20;2.00;;;;;;;;;;4998260;28;20084;-78
2023/07/15 09:47:18;;;;;;;2.50;2.15;;;;;;;;;;4996979;28;20022;-77
2023/07/15 09:49:43;;;;;;;2.42;2.22;;;;;;;;;;5000289;28;20453;-77
2023/07/15 09:52:10;;;;;;;2.20;1.73;;;;;;;;;;5002369;28;20026;-77
2023/07/15 09:54:36;;;;;;;2.65;1.92;;;;;;;;;;5001587;28;20110;-77
2023/07/15 09:57:14;;;;;;;4.53;2.30;;;;;;;;;;4999775;28;20449;-76
2023/07/15 09:59:47;;;;;;;2.00;1.83;;;;;;;;;;4998617;28;20536;-77
2023/07/15 10:02:35;;;;;;;2.00;1.67;;;;;;;;;;4997262;28;20192;-79
2023/07/15 10:05:04;;;;;;;2.03;1.85;;;;;;;;;;5000340;28;20026;-79
2023/07/15 10:07:31;;;;;;;1.92;1.83;;;;;;;;;;5001429;28;20068;-79
2023/07/15 10:09:58;;;;;;;2.13;1.98;;;;;;;;;;5002411;28;20033;-78
2023/07/15 10:12:25;;;;;;;2.20;2.00;;;;;;;;;;5000174;28;20088;-79
2023/07/15 10:14:51;;;;;;;2.15;1.90;;;;;;;;;;5004822;28;20030;-80
2023/07/15 10:17:16;;;;;;;1.90;1.55;;;;;;;;;;4998622;28;20026;-79
2023/07/15 10:19:52;;;;;;;2.30;2.10;;;;;;;;;;5002204;28;20112;-79
2023/07/15 10:22:20;;;;;;;1.75;1.60;;;;;;;;;;5010723;28;20025;-79
2023/07/15 10:24:57;;;;;;;2.40;1.83;;;;;;;;;;4999430;28;20511;-79
2023/07/15 10:27:26;;;;;;;2.33;2.13;;;;;;;;;;5001382;28;20102;-80
2023/07/15 10:30:17;;;;;;;2.20;1.70;;;;;;;;;;5002292;28;20040;-80
2023/07/15 10:33:03;;;;;;;2.35;1.80;;;;;;;;;;4999436;28;20057;-80
2023/07/15 10:35:33;;;;;;;1.50;1.40;;;;;;;;;;5001089;28;20057;-78
2023/07/15 10:38:20;;;;;;;2.17;1.92;;;;;;;;;;4999426;28;20041;-79
2023/07/15 10:41:00;;;;;;;2.38;2.15;;;;;;;;;;4997384;28;20108;-79
2023/07/15 10:43:34;;;;;;;;;;;;;;;;;;5003234;28;20018;-81
2023/07/15 10:46:10;;;;;;;1.48;1.38;;;;;;;;;;5001512;28;20580;-80
2023/07/15 10:48:37;;;;;;;2.20;2.00;;;;;;;;;;5003971;28;20045;-80
2023/07/15 10:51:05;;;;;;;2.83;2.20;;;;;;;;;;5003715;28;20053;-79
2023/07/15 10:53:30;;;;;;;3.30;1.88;;;;;;;;;;5014222;28;20767;-82
2023/07/15 10:56:03;;;;;;;1.85;1.63;;;;;;;;;;5009696;28;20128;-82
2023/07/15 10:58:32;;;;;;;2.03;1.77;;;;;;;;;;5002790;28;20026;-83
2023/07/15 11:01:06;;;;;;;2.00;1.60;;;;;;;;;;5007421;28;20034;-82
2023/07/15 11:03:35;;;;;;;3.10;1.92;;;;;;;;;;5019538;28;20064;-85
2023/07/15 11:06:02;;;;;;;2.67;1.80;;;;;;;;;;5004401;28;20036;-83
2023/07/15 11:08:27;;;;;;;2.53;1.92;;;;;;;;;;5008184;28;20093;-83
2023/07/15 11:10:56;;;;;;;2.08;1.98;;;;;;;;;;5005929;28;20052;-83
2023/07/15 11:13:22;;;;;;;4.25;2.10;;;;;;;;;;5002380;28;20474;-83
2023/07/15 11:15:47;;;;;;;1.92;1.80;;;;;;;;;;5002387;28;20100;-80
2023/07/15 11:18:17;;;;;;;3.17;2.40;;;;;;;;;;5005183;28;20130;-81
2023/07/15 11:20:44;;;;;;;2.28;2.08;;;;;;;;;;5000712;28;20028;-81
2023/07/15 11:23:10;;;;;;;2.83;2.28;;;;;;;;;;5006470;28;20455;-82
2023/07/15 11:25:36;;;;;;;1.80;1.70;;;;;;;;;;5009774;28;20509;-82
2023/07/15 11:28:02;;;;;;;3.65;2.20;;;;;;;;;;5004234;28;20052;-81
2023/07/15 11:30:54;;;;;;;3.08;2.13;;;;;;;;;;5005061;28;20034;-81
2023/07/15 11:33:19;;;;;;;3.20;2.10;;;;;;;;;;5003297;28;20053;-78
2023/07/15 11:35:45;;;;;;;2.88;2.05;;;;;;;;;;5000436;28;20469;-78
2023/07/15 11:38:13;;;;;;;1.80;1.70;;;;;;;;;;4992820;28;20022;-78
2023/07/15 11:40:54;;;;;;;1.95;1.80;;;;;;;;;;5000152;28;20030;-78
2023/07/15 11:43:22;;;;;;;2.10;1.83;;;;;;;;;;4996080;28;20041;-78
2023/07/15 11:45:48;;;;;;;2.35;2.20;;;;;;;;;;4991212;28;20018;-80
2023/07/15 11:48:22;;;;;;;5.13;2.10;;;;;;;;;;4998881;28;20076;-82
2023/07/15 11:50:48;;;;;;;3.33;2.20;;;;;;;;;;4999547;28;20022;-81
2023/07/15 11:53:29;;;;;;;2.55;1.90;;;;;;;;;;4998565;28;20045;-79
2023/07/15 11:55:55;;;;;;;2.20;1.83;;;;;;;;;;5008527;28;20048;-80
2023/07/15 11:58:55;;;;;;;2.05;1.85;;;;;;;;;;5008945;28;20029;-80
2023/07/15 12:01:25;;;;;;;2.05;1.88;;;;;;;;;;4955516;28;20046;-80
2023/07/15 12:03:51;;;;;;;3.70;2.28;;;;;;;;;;4998810;28;20037;-81
2023/07/15 12:06:22;;;;;;;4.05;1.95;;;;;;;;;;5003589;28;20056;-82
2023/07/15 12:09:04;;;;;;;1.75;1.65;;;;;;;;;;5008394;28;20030;-80
2023/07/15 12:11:31;;;;;;;2.60;2.35;;;;;;;;;;4999995;28;20037;-79
2023/07/15 12:13:58;;;;;;;2.67;2.30;;;;;;;;;;5002681;28;20726;-80
2023/07/15 12:16:24;;;;;;;2.30;2.10;;;;;;;;;;5001712;28;20037;-80
2023/07/15 12:18:49;;;;;;;2.00;1.90;;;;;;;;;;5008562;28;20061;-83
2023/07/15 12:21:15;;;;;;;2.05;1.90;;;;;;;;;;5009564;28;20041;-83
2023/07/15 12:23:42;;;;;;;1.60;1.50;;;;;;;;;;5006722;28;20031;-82
2023/07/15 12:26:07;;;;;;;1.80;1.70;;;;;;;;;;5008470;28;20391;-80
2023/07/15 12:28:33;;;;;;;4.00;2.28;;;;;;;;;;5010484;28;20482;-81
2023/07/15 12:30:58;;;;;;;3.05;2.60;;;;;;;;;;5005904;28;20402;-80
2023/07/15 12:33:24;;;;;;;2.70;2.40;;;;;;;;;;5013852;28;20049;-81
2023/07/15 12:35:50;;;;;;;2.50;2.30;;;;;;;;;;5013966;28;20025;-82
2023/07/15 12:38:15;;;;;;;2.40;2.10;;;;;;;;;;5010051;28;20160;-82
2023/07/15 12:40:41;;;;;;;3.17;2.40;;;;;;;;;;5006918;28;20498;-81
2023/07/15 12:43:06;;;;;;;2.42;2.20;;;;;;;;;;5002994;28;20105;-82
2023/07/15 12:45:32;;;;;;;2.80;2.60;;;;;;;;;;4997755;28;20032;-84
2023/07/15 12:47:57;;;;;;;2.75;2.55;;;;;;;;;;4999206;28;20400;-81
2023/07/15 12:50:22;;;;;;;5.05;2.38;;;;;;;;;;5000644;28;20080;-81
2023/07/15 12:52:48;;;;;;;3.25;2.50;;;;;;;;;;5001549;28;20072;-80
2023/07/15 12:55:13;;;;;;;5.22;2.70;;;;;;;;;;5010971;28;20021;-81
2023/07/15 12:57:39;;;;;;;3.17;2.88;;;;;;;;;;5004874;28;20565;-81
2023/07/15 13:00:05;;;;;;;3.83;2.80;;;;;;;;;;5005912;28;20014;-80
2023/07/15 13:02:31;;;;;;;4.15;2.70;;;;;;;;;;5009042;28;20026;-80
2023/07/15 13:04:56;;;;;;;2.70;2.50;;;;;;;;;;5009542;28;20022;-80
2023/07/15 13:07:22;;;;;;;3.40;2.55;;;;;;;;;;5004389;28;20026;-80
2023/07/15 13:09:47;;;;;;;2.95;2.60;;;;;;;;;;5004810;28;20038;-81
2023/07/15 13:12:13;;;;;;;2.70;2.50;;;;;;;;;;5000805;28;20022;-80
2023/07/15 13:14:38;;;;;;;2.92;2.72;;;;;;;;;;5004617;28;20029;-80
2023/07/15 13:17:04;;;;;;;3.95;2.80;;;;;;;;;;5009089;28;20512;-80
2023/07/15 13:19:30;;;;;;;3.42;3.03;;;;;;;;;;5007708;28;20025;-81
2023/07/15 13:21:55;;;;;;;3.97;3.13;;;;;;;;;;5006010;28;20398;-81
2023/07/15 13:24:24;;;;;;;3.15;2.85;;;;;;;;;;5006790;28;20479;-81
2023/07/15 13:26:50;;;;;;;2.72;2.53;;;;;;;;;;5009175;28;20556;-79
2023/07/15 13:29:15;;;;;;;2.92;2.65;;;;;;;;;;5005601;28;20498;-80
2023/07/15 13:31:41;;;;;;;4.05;2.58;;;;;;;;;;5000110;28;20052;-80
2023/07/15 13:34:06;;;;;;;2.75;2.55;;;;;;;;;;5006650;28;20027;-80
2023/07/15 13:36:31;;;;;;;3.13;2.78;;;;;;;;;;5011318;28;20486;-80
2023/07/15 13:38:57;;;;;;;3.58;2.70;;;;;;;;;;5015837;28;20033;-78
2023/07/15 13:41:22;;;;;;;3.75;2.80;;;;;;;;;;5009930;28;20418;-80
2023/07/15 13:43:48;;;;;;;3.70;2.58;;;;;;;;;;5008278;28;20029;-77
2023/07/15 13:46:13;;;;;;;2.67;2.47;;;;;;;;;;5007657;28;20037;-79
2023/07/15 13:48:38;;;;;;;2.90;2.70;;;;;;;;;;5005355;28;20026;-79
2023/07/15 13:51:04;;;;;;;3.00;2.80;;;;;;;;;;5006241;28;20029;-77
2023/07/15 13:53:29;;;;;;;3.40;2.70;;;;;;;;;;5002244;28;20129;-80
2023/07/15 13:55:55;;;;;;;6.40;2.67;;;;;;;;;;5002519;28;20037;-78
2023/07/15 13:58:20;;;;;;;2.97;2.58;;;;;;;;;;5003515;28;20037;-77
2023/07/15 14:00:45;;;;;;;3.72;2.70;;;;;;;;;;4998366;28;20058;-77
2023/07/15 14:03:11;;;;;;;3.35;2.90;;;;;;;;;;4996200;28;20121;-77
2023/07/15 14:05:37;;;;;;;3.88;2.78;;;;;;;;;;5000820;28;20092;-75
2023/07/15 14:08:02;;;;;;;2.72;2.55;;;;;;;;;;4997036;28;20121;-74
2023/07/15 14:10:28;;;;;;;2.92;2.42;;;;;;;;;;5001803;28;20448;-75
2023/07/15 14:12:53;;;;;;;3.50;2.55;;;;;;;;;;4996153;28;20034;-76
2023/07/15 14:15:19;;;;;;;3.55;2.90;;;;;;;;;;4996095;28;20030;-77
2023/07/15 14:17:44;;;;;;;2.58;2.38;;;;;;;;;;4996319;28;20028;-76
2023/07/15 14:20:10;;;;;;;4.97;2.70;;;;;;;;;;5007617;28;20020;-78
2023/07/15 14:22:35;;;;;;;3.35;2.40;;;;;;;;;;5003856;28;20761;-78
2023/07/15 14:25:01;;;;;;;2.65;2.22;;;;;;;;;;5010097;28;20025;-77
2023/07/15 14:27:26;;;;;;;3.53;2.50;;;;;;;;;;5003850;28;20030;-78
2023/07/15 14:29:51;;;;;;;2.75;2.55;;;;;;;;;;5006380;28;20488;-76
2023/07/15 14:32:17;;;;;;;3.08;2.83;;;;;;;;;;5008810;28;20044;-77
2023/07/15 14:34:42;;;;;;;4.53;4.07;;;;;;;;;;4997403;28;20018;-77
2023/07/15 14:37:08;;;;;;;5.00;3.80;;;;;;;;;;5001705;28;20462;-78
2023/07/15 14:39:33;;;;;;;8.55;6.22;;;;;;;;;;5000916;28;20105;-77
2023/07/15 14:41:59;;;;;;;8.80;5.97;;;;;;;;;;5000478;28;20052;-77